sensor_id;sensor_type;location;lat;lon;timestamp;P1;durP1;ratioP1;P2;durP2;ratioP2
43700;SDS011;58809;47.984;7.964;2022-12-16T00:04:02;73.60;;;39.95;;
43700;SDS011;58809;47.984;7.964;2022-12-16T00:07:04;72.65;;;39.95;;
43700;SDS011;58809;47.984;7.964;2022-12-16T00:10:06;79.70;;;40.10;;
43700;SDS011;58809;47.984;7.964;2022-12-16T00:13:08;70.10;;;36.30;;
43700;SDS011;58809;47.984;7.964;2022-12-16T00:16:11;75.85;;;39.85;;
43700;SDS011;58809;47.984;7.964;2022-12-16T00:19:14;68.18;;;38.55;;
43700;SDS011;58809;47.984;7.964;2022-12-16T00:22:16;76.80;;;41.33;;
43700;SDS011;58809;47.984;7.964;2022-12-16T00:25:18;67.18;;;37.40;;
43700;SDS011;58809;47.984;7.964;2022-12-16T00:28:19;58.85;;;36.17;;
43700;SDS011;58809;47.984;7.964;2022-12-16T00:31:25;62.30;;;35.28;;
43700;SDS011;58809;47.984;7.964;2022-12-16T00:34:27;72.03;;;38.55;;
43700;SDS011;58809;47.984;7.964;2022-12-16T00:37:29;67.30;;;36.38;;
43700;SDS011;58809;47.984;7.964;2022-12-16T00:40:30;66.20;;;38.25;;
43700;SDS011;58809;47.984;7.964;2022-12-16T00:43:32;65.25;;;37.50;;
43700;SDS011;58809;47.984;7.964;2022-12-16T00:46:34;63.53;;;36.15;;
43700;SDS011;58809;47.984;7.964;2022-12-16T00:49:36;62.35;;;35.53;;
43700;SDS011;58809;47.984;7.964;2022-12-16T00:52:37;61.25;;;34.22;;
43700;SDS011;58809;47.984;7.964;2022-12-16T00:55:39;59.55;;;34.33;;
43700;SDS011;58809;47.984;7.964;2022-12-16T00:58:40;57.97;;;35.00;;
43700;SDS011;58809;47.984;7.964;2022-12-16T01:01:42;57.33;;;33.97;;
43700;SDS011;58809;47.984;7.964;2022-12-16T01:04:44;56.75;;;33.58;;
43700;SDS011;58809;47.984;7.964;2022-12-16T01:07:46;64.22;;;36.78;;
43700;SDS011;58809;47.984;7.964;2022-12-16T01:10:49;56.22;;;32.10;;
43700;SDS011;58809;47.984;7.964;2022-12-16T01:13:52;56.53;;;33.88;;
43700;SDS011;58809;47.984;7.964;2022-12-16T01:16:55;53.40;;;31.05;;
43700;SDS011;58809;47.984;7.964;2022-12-16T01:19:57;61.58;;;33.90;;
43700;SDS011;58809;47.984;7.964;2022-12-16T01:22:59;57.47;;;33.90;;
43700;SDS011;58809;47.984;7.964;2022-12-16T01:26:00;64.55;;;35.17;;
43700;SDS011;58809;47.984;7.964;2022-12-16T01:29:02;70.43;;;38.25;;
43700;SDS011;58809;47.984;7.964;2022-12-16T01:32:04;64.88;;;34.50;;
43700;SDS011;58809;47.984;7.964;2022-12-16T01:35:06;58.17;;;34.80;;
43700;SDS011;58809;47.984;7.964;2022-12-16T01:38:28;64.38;;;35.92;;
43700;SDS011;58809;47.984;7.964;2022-12-16T01:41:30;54.15;;;32.38;;
43700;SDS011;58809;47.984;7.964;2022-12-16T01:44:32;56.97;;;33.42;;
43700;SDS011;58809;47.984;7.964;2022-12-16T01:47:34;54.78;;;31.98;;
43700;SDS011;58809;47.984;7.964;2022-12-16T01:50:36;53.53;;;32.15;;
43700;SDS011;58809;47.984;7.964;2022-12-16T01:53:37;57.67;;;33.88;;
43700;SDS011;58809;47.984;7.964;2022-12-16T01:56:50;54.85;;;31.80;;
43700;SDS011;58809;47.984;7.964;2022-12-16T01:59:55;59.03;;;33.47;;
43700;SDS011;58809;47.984;7.964;2022-12-16T02:02:57;59.28;;;36.20;;
43700;SDS011;58809;47.984;7.964;2022-12-16T02:06:01;61.63;;;35.05;;
43700;SDS011;58809;47.984;7.964;2022-12-16T02:09:04;59.90;;;34.58;;
43700;SDS011;58809;47.984;7.964;2022-12-16T02:12:12;79.45;;;39.65;;
43700;SDS011;58809;47.984;7.964;2022-12-16T02:15:33;66.97;;;37.85;;
43700;SDS011;58809;47.984;7.964;2022-12-16T02:36:18;71.20;;;40.05;;
43700;SDS011;58809;47.984;7.964;2022-12-16T02:42:50;62.20;;;35.27;;
43700;SDS011;58809;47.984;7.964;2022-12-16T02:45:57;65.38;;;37.40;;
43700;SDS011;58809;47.984;7.964;2022-12-16T02:49:04;69.88;;;38.60;;
43700;SDS011;58809;47.984;7.964;2022-12-16T02:52:30;61.08;;;33.83;;
43700;SDS011;58809;47.984;7.964;2022-12-16T03:06:01;56.40;;;32.58;;
43700;SDS011;58809;47.984;7.964;2022-12-16T03:09:06;54.33;;;31.00;;
43700;SDS011;58809;47.984;7.964;2022-12-16T03:12:11;60.65;;;32.17;;
43700;SDS011;58809;47.984;7.964;2022-12-16T03:15:18;56.30;;;31.52;;
43700;SDS011;58809;47.984;7.964;2022-12-16T03:18:23;49.95;;;30.58;;
43700;SDS011;58809;47.984;7.964;2022-12-16T03:21:27;50.92;;;31.17;;
43700;SDS011;58809;47.984;7.964;2022-12-16T03:24:34;56.50;;;34.15;;
43700;SDS011;58809;47.984;7.964;2022-12-16T03:30:53;48.13;;;31.02;;
43700;SDS011;58809;47.984;7.964;2022-12-16T03:37:21;48.35;;;29.30;;
43700;SDS011;58809;47.984;7.964;2022-12-16T03:40:27;51.10;;;30.80;;
43700;SDS011;58809;47.984;7.964;2022-12-16T03:43:30;48.67;;;30.05;;
43700;SDS011;58809;47.984;7.964;2022-12-16T03:46:32;48.88;;;28.63;;
43700;SDS011;58809;47.984;7.964;2022-12-16T03:49:33;50.85;;;30.75;;
43700;SDS011;58809;47.984;7.964;2022-12-16T03:52:35;47.75;;;30.95;;
43700;SDS011;58809;47.984;7.964;2022-12-16T03:55:37;49.05;;;29.73;;
43700;SDS011;58809;47.984;7.964;2022-12-16T03:58:38;48.17;;;29.45;;
43700;SDS011;58809;47.984;7.964;2022-12-16T04:01:40;53.28;;;32.22;;
43700;SDS011;58809;47.984;7.964;2022-12-16T04:04:42;54.03;;;31.15;;
43700;SDS011;58809;47.984;7.964;2022-12-16T04:07:44;50.83;;;31.15;;
43700;SDS011;58809;47.984;7.964;2022-12-16T04:10:45;51.53;;;31.15;;
43700;SDS011;58809;47.984;7.964;2022-12-16T04:14:07;48.50;;;30.08;;
43700;SDS011;58809;47.984;7.964;2022-12-16T04:17:27;53.65;;;32.13;;
43700;SDS011;58809;47.984;7.964;2022-12-16T04:20:51;53.42;;;31.58;;
43700;SDS011;58809;47.984;7.964;2022-12-16T04:24:15;52.80;;;32.63;;
43700;SDS011;58809;47.984;7.964;2022-12-16T04:27:21;57.72;;;34.25;;
43700;SDS011;58809;47.984;7.964;2022-12-16T04:33:28;53.78;;;32.55;;
43700;SDS011;58809;47.984;7.964;2022-12-16T04:36:49;60.75;;;34.92;;
43700;SDS011;58809;47.984;7.964;2022-12-16T04:40:09;52.90;;;31.75;;
43700;SDS011;58809;47.984;7.964;2022-12-16T04:43:29;52.63;;;31.10;;
43700;SDS011;58809;47.984;7.964;2022-12-16T04:46:50;49.25;;;31.40;;
43700;SDS011;58809;47.984;7.964;2022-12-16T04:50:10;47.55;;;29.02;;
43700;SDS011;58809;47.984;7.964;2022-12-16T04:53:31;49.20;;;29.85;;
43700;SDS011;58809;47.984;7.964;2022-12-16T04:56:58;48.78;;;30.52;;
43700;SDS011;58809;47.984;7.964;2022-12-16T05:00:18;52.05;;;31.35;;
43700;SDS011;58809;47.984;7.964;2022-12-16T05:03:38;55.42;;;31.80;;
43700;SDS011;58809;47.984;7.964;2022-12-16T05:06:58;49.25;;;30.48;;
43700;SDS011;58809;47.984;7.964;2022-12-16T05:10:18;48.53;;;30.75;;
43700;SDS011;58809;47.984;7.964;2022-12-16T05:13:38;47.67;;;29.67;;
43700;SDS011;58809;47.984;7.964;2022-12-16T05:16:58;49.42;;;30.85;;
43700;SDS011;58809;47.984;7.964;2022-12-16T05:20:18;52.03;;;31.88;;
43700;SDS011;58809;47.984;7.964;2022-12-16T05:23:38;47.90;;;31.15;;
43700;SDS011;58809;47.984;7.964;2022-12-16T05:26:58;46.38;;;29.85;;
43700;SDS011;58809;47.984;7.964;2022-12-16T05:30:18;49.13;;;30.48;;
43700;SDS011;58809;47.984;7.964;2022-12-16T05:33:39;47.45;;;29.73;;
43700;SDS011;58809;47.984;7.964;2022-12-16T05:36:59;49.20;;;30.02;;
43700;SDS011;58809;47.984;7.964;2022-12-16T05:40:19;45.20;;;29.45;;
43700;SDS011;58809;47.984;7.964;2022-12-16T05:43:39;44.08;;;29.27;;
43700;SDS011;58809;47.984;7.964;2022-12-16T05:46:59;50.63;;;31.63;;
43700;SDS011;58809;47.984;7.964;2022-12-16T05:50:19;50.45;;;31.33;;
43700;SDS011;58809;47.984;7.964;2022-12-16T05:53:42;46.47;;;29.55;;
43700;SDS011;58809;47.984;7.964;2022-12-16T05:57:02;51.75;;;31.40;;
43700;SDS011;58809;47.984;7.964;2022-12-16T06:00:22;52.25;;;32.33;;
43700;SDS011;58809;47.984;7.964;2022-12-16T06:03:43;46.47;;;30.05;;
43700;SDS011;58809;47.984;7.964;2022-12-16T06:07:02;50.90;;;30.85;;
43700;SDS011;58809;47.984;7.964;2022-12-16T06:10:23;46.65;;;30.00;;
43700;SDS011;58809;47.984;7.964;2022-12-16T06:13:43;50.58;;;30.92;;
43700;SDS011;58809;47.984;7.964;2022-12-16T06:17:03;45.65;;;28.90;;
43700;SDS011;58809;47.984;7.964;2022-12-16T06:20:23;48.45;;;29.55;;
43700;SDS011;58809;47.984;7.964;2022-12-16T06:23:44;52.63;;;31.27;;
43700;SDS011;58809;47.984;7.964;2022-12-16T06:27:03;52.08;;;31.40;;
43700;SDS011;58809;47.984;7.964;2022-12-16T06:30:23;45.25;;;29.65;;
43700;SDS011;58809;47.984;7.964;2022-12-16T06:33:45;51.45;;;34.92;;
43700;SDS011;58809;47.984;7.964;2022-12-16T06:37:05;53.00;;;32.72;;
43700;SDS011;58809;47.984;7.964;2022-12-16T06:40:25;43.97;;;28.98;;
43700;SDS011;58809;47.984;7.964;2022-12-16T06:43:45;51.38;;;31.55;;
43700;SDS011;58809;47.984;7.964;2022-12-16T06:47:05;44.88;;;28.35;;
43700;SDS011;58809;47.984;7.964;2022-12-16T06:50:25;47.45;;;29.00;;
43700;SDS011;58809;47.984;7.964;2022-12-16T06:53:45;49.40;;;30.73;;
43700;SDS011;58809;47.984;7.964;2022-12-16T06:57:05;40.53;;;27.10;;
43700;SDS011;58809;47.984;7.964;2022-12-16T07:00:25;43.90;;;28.25;;
43700;SDS011;58809;47.984;7.964;2022-12-16T07:03:45;45.55;;;29.75;;
43700;SDS011;58809;47.984;7.964;2022-12-16T07:07:05;43.20;;;28.17;;
43700;SDS011;58809;47.984;7.964;2022-12-16T07:10:26;43.75;;;28.77;;
43700;SDS011;58809;47.984;7.964;2022-12-16T07:13:46;48.05;;;29.77;;
43700;SDS011;58809;47.984;7.964;2022-12-16T07:17:06;45.28;;;28.92;;
43700;SDS011;58809;47.984;7.964;2022-12-16T07:20:40;46.38;;;28.40;;
43700;SDS011;58809;47.984;7.964;2022-12-16T07:24:00;42.42;;;28.30;;
43700;SDS011;58809;47.984;7.964;2022-12-16T07:27:20;46.15;;;26.50;;
43700;SDS011;58809;47.984;7.964;2022-12-16T07:30:41;48.08;;;29.23;;
43700;SDS011;58809;47.984;7.964;2022-12-16T07:34:02;47.50;;;27.73;;
43700;SDS011;58809;47.984;7.964;2022-12-16T07:37:21;43.97;;;26.42;;
43700;SDS011;58809;47.984;7.964;2022-12-16T07:40:41;42.25;;;28.35;;
43700;SDS011;58809;47.984;7.964;2022-12-16T07:44:12;46.58;;;27.65;;
43700;SDS011;58809;47.984;7.964;2022-12-16T07:47:32;51.38;;;29.15;;
43700;SDS011;58809;47.984;7.964;2022-12-16T07:50:55;43.53;;;27.27;;
43700;SDS011;58809;47.984;7.964;2022-12-16T07:54:15;42.92;;;26.08;;
43700;SDS011;58809;47.984;7.964;2022-12-16T07:57:35;47.10;;;27.40;;
43700;SDS011;58809;47.984;7.964;2022-12-16T08:00:55;45.22;;;27.90;;
43700;SDS011;58809;47.984;7.964;2022-12-16T08:04:16;40.17;;;26.40;;
43700;SDS011;58809;47.984;7.964;2022-12-16T08:07:38;43.92;;;26.65;;
43700;SDS011;58809;47.984;7.964;2022-12-16T08:10:59;46.53;;;28.65;;
43700;SDS011;58809;47.984;7.964;2022-12-16T08:14:19;42.65;;;25.52;;
43700;SDS011;58809;47.984;7.964;2022-12-16T08:17:41;45.78;;;27.83;;
43700;SDS011;58809;47.984;7.964;2022-12-16T08:21:07;44.47;;;26.13;;
43700;SDS011;58809;47.984;7.964;2022-12-16T08:24:28;42.97;;;26.77;;
43700;SDS011;58809;47.984;7.964;2022-12-16T08:27:54;43.22;;;25.90;;
43700;SDS011;58809;47.984;7.964;2022-12-16T08:31:35;43.47;;;25.73;;
43700;SDS011;58809;47.984;7.964;2022-12-16T08:34:55;42.92;;;27.83;;
43700;SDS011;58809;47.984;7.964;2022-12-16T08:38:15;42.30;;;26.90;;
43700;SDS011;58809;47.984;7.964;2022-12-16T08:41:36;46.92;;;27.17;;
43700;SDS011;58809;47.984;7.964;2022-12-16T08:44:59;43.42;;;28.45;;
43700;SDS011;58809;47.984;7.964;2022-12-16T08:48:19;44.90;;;28.20;;
43700;SDS011;58809;47.984;7.964;2022-12-16T08:51:40;43.72;;;27.15;;
43700;SDS011;58809;47.984;7.964;2022-12-16T08:55:00;45.20;;;29.25;;
43700;SDS011;58809;47.984;7.964;2022-12-16T08:58:26;44.45;;;28.38;;
43700;SDS011;58809;47.984;7.964;2022-12-16T09:01:46;40.55;;;25.92;;
43700;SDS011;58809;47.984;7.964;2022-12-16T09:05:06;46.20;;;28.60;;
43700;SDS011;58809;47.984;7.964;2022-12-16T09:08:27;44.38;;;29.02;;
43700;SDS011;58809;47.984;7.964;2022-12-16T09:11:48;45.88;;;28.88;;
43700;SDS011;58809;47.984;7.964;2022-12-16T09:15:08;43.95;;;28.50;;
43700;SDS011;58809;47.984;7.964;2022-12-16T09:18:28;47.90;;;28.85;;
43700;SDS011;58809;47.984;7.964;2022-12-16T09:21:48;46.05;;;29.30;;
43700;SDS011;58809;47.984;7.964;2022-12-16T09:25:08;45.53;;;30.33;;
43700;SDS011;58809;47.984;7.964;2022-12-16T09:28:29;43.85;;;29.00;;
43700;SDS011;58809;47.984;7.964;2022-12-16T09:31:49;45.28;;;29.42;;
43700;SDS011;58809;47.984;7.964;2022-12-16T09:35:10;48.15;;;29.45;;
43700;SDS011;58809;47.984;7.964;2022-12-16T09:47:28;49.22;;;29.77;;
43700;SDS011;58809;47.984;7.964;2022-12-16T09:51:01;50.00;;;32.38;;
43700;SDS011;58809;47.984;7.964;2022-12-16T09:54:26;53.50;;;33.67;;
43700;SDS011;58809;47.984;7.964;2022-12-16T09:57:48;46.10;;;29.03;;
43700;SDS011;58809;47.984;7.964;2022-12-16T10:01:12;54.38;;;33.72;;
43700;SDS011;58809;47.984;7.964;2022-12-16T10:04:33;49.40;;;29.93;;
43700;SDS011;58809;47.984;7.964;2022-12-16T10:07:56;49.70;;;32.17;;
43700;SDS011;58809;47.984;7.964;2022-12-16T10:11:29;49.85;;;31.30;;
43700;SDS011;58809;47.984;7.964;2022-12-16T10:15:23;48.63;;;31.10;;
43700;SDS011;58809;47.984;7.964;2022-12-16T10:29:29;48.17;;;29.08;;
43700;SDS011;58809;47.984;7.964;2022-12-16T10:32:56;47.22;;;29.67;;
43700;SDS011;58809;47.984;7.964;2022-12-16T10:36:19;55.13;;;33.17;;
43700;SDS011;58809;47.984;7.964;2022-12-16T10:39:57;48.17;;;30.25;;
43700;SDS011;58809;47.984;7.964;2022-12-16T10:43:20;47.58;;;29.33;;
43700;SDS011;58809;47.984;7.964;2022-12-16T10:46:55;46.72;;;28.60;;
43700;SDS011;58809;47.984;7.964;2022-12-16T10:50:15;49.08;;;29.88;;
43700;SDS011;58809;47.984;7.964;2022-12-16T10:53:35;45.03;;;27.88;;
43700;SDS011;58809;47.984;7.964;2022-12-16T10:57:02;43.00;;;27.88;;
43700;SDS011;58809;47.984;7.964;2022-12-16T11:00:44;43.80;;;27.48;;
43700;SDS011;58809;47.984;7.964;2022-12-16T11:07:56;45.80;;;27.85;;
43700;SDS011;58809;47.984;7.964;2022-12-16T11:11:20;40.58;;;25.77;;
43700;SDS011;58809;47.984;7.964;2022-12-16T11:14:43;48.95;;;28.92;;
43700;SDS011;58809;47.984;7.964;2022-12-16T11:18:29;42.08;;;28.08;;
43700;SDS011;58809;47.984;7.964;2022-12-16T11:21:49;50.58;;;30.83;;
43700;SDS011;58809;47.984;7.964;2022-12-16T11:25:14;43.20;;;29.45;;
43700;SDS011;58809;47.984;7.964;2022-12-16T11:28:36;42.45;;;27.15;;
43700;SDS011;58809;47.984;7.964;2022-12-16T11:31:59;44.53;;;26.80;;
43700;SDS011;58809;47.984;7.964;2022-12-16T11:35:23;45.20;;;28.92;;
43700;SDS011;58809;47.984;7.964;2022-12-16T11:38:46;42.07;;;28.87;;
43700;SDS011;58809;47.984;7.964;2022-12-16T11:42:11;44.72;;;29.67;;
43700;SDS011;58809;47.984;7.964;2022-12-16T11:45:39;45.47;;;28.95;;
43700;SDS011;58809;47.984;7.964;2022-12-16T11:49:02;48.88;;;30.08;;
43700;SDS011;58809;47.984;7.964;2022-12-16T11:52:27;46.28;;;29.50;;
43700;SDS011;58809;47.984;7.964;2022-12-16T11:55:49;45.03;;;30.30;;
43700;SDS011;58809;47.984;7.964;2022-12-16T11:59:25;47.33;;;30.55;;
43700;SDS011;58809;47.984;7.964;2022-12-16T12:03:02;47.65;;;30.58;;
43700;SDS011;58809;47.984;7.964;2022-12-16T12:06:39;43.50;;;28.88;;
43700;SDS011;58809;47.984;7.964;2022-12-16T12:10:13;47.25;;;30.35;;
43700;SDS011;58809;47.984;7.964;2022-12-16T12:17:42;41.25;;;28.08;;
43700;SDS011;58809;47.984;7.964;2022-12-16T12:21:25;40.22;;;27.90;;
43700;SDS011;58809;47.984;7.964;2022-12-16T12:32:02;47.10;;;30.48;;
43700;SDS011;58809;47.984;7.964;2022-12-16T12:39:17;42.72;;;27.75;;
43700;SDS011;58809;47.984;7.964;2022-12-16T12:46:17;50.22;;;29.70;;
43700;SDS011;58809;47.984;7.964;2022-12-16T12:50:07;43.55;;;28.70;;
43700;SDS011;58809;47.984;7.964;2022-12-16T12:56:48;48.22;;;30.63;;
43700;SDS011;58809;47.984;7.964;2022-12-16T13:00:14;48.58;;;28.60;;
43700;SDS011;58809;47.984;7.964;2022-12-16T13:07:14;43.45;;;27.15;;
43700;SDS011;58809;47.984;7.964;2022-12-16T13:10:35;46.00;;;27.95;;
43700;SDS011;58809;47.984;7.964;2022-12-16T13:13:57;42.63;;;28.00;;
43700;SDS011;58809;47.984;7.964;2022-12-16T13:17:18;48.13;;;30.25;;
43700;SDS011;58809;47.984;7.964;2022-12-16T13:20:39;46.95;;;30.88;;
43700;SDS011;58809;47.984;7.964;2022-12-16T13:23:59;51.08;;;29.92;;
43700;SDS011;58809;47.984;7.964;2022-12-16T13:27:47;43.25;;;30.40;;
43700;SDS011;58809;47.984;7.964;2022-12-16T13:31:12;49.58;;;31.15;;
43700;SDS011;58809;47.984;7.964;2022-12-16T13:34:33;45.78;;;30.48;;
43700;SDS011;58809;47.984;7.964;2022-12-16T13:41:48;50.50;;;31.80;;
43700;SDS011;58809;47.984;7.964;2022-12-16T13:52:56;48.17;;;31.05;;
43700;SDS011;58809;47.984;7.964;2022-12-16T13:56:26;53.05;;;33.83;;
43700;SDS011;58809;47.984;7.964;2022-12-16T13:59:52;53.88;;;32.03;;
43700;SDS011;58809;47.984;7.964;2022-12-16T14:03:16;52.67;;;31.95;;
43700;SDS011;58809;47.984;7.964;2022-12-16T14:06:40;52.75;;;32.15;;
43700;SDS011;58809;47.984;7.964;2022-12-16T14:10:00;54.53;;;33.58;;
43700;SDS011;58809;47.984;7.964;2022-12-16T14:17:03;54.92;;;34.28;;
43700;SDS011;58809;47.984;7.964;2022-12-16T14:20:31;61.13;;;37.30;;
43700;SDS011;58809;47.984;7.964;2022-12-16T14:24:03;51.50;;;33.25;;
43700;SDS011;58809;47.984;7.964;2022-12-16T14:27:31;57.55;;;34.38;;
43700;SDS011;58809;47.984;7.964;2022-12-16T14:31:05;53.13;;;34.38;;
43700;SDS011;58809;47.984;7.964;2022-12-16T14:34:33;57.30;;;35.55;;
43700;SDS011;58809;47.984;7.964;2022-12-16T14:37:55;57.45;;;34.75;;
43700;SDS011;58809;47.984;7.964;2022-12-16T14:41:18;58.85;;;36.45;;
43700;SDS011;58809;47.984;7.964;2022-12-16T14:44:43;59.40;;;34.30;;
43700;SDS011;58809;47.984;7.964;2022-12-16T14:48:26;57.63;;;33.83;;
43700;SDS011;58809;47.984;7.964;2022-12-16T14:51:54;61.80;;;36.42;;
43700;SDS011;58809;47.984;7.964;2022-12-16T14:55:16;60.90;;;35.35;;
43700;SDS011;58809;47.984;7.964;2022-12-16T14:58:38;57.38;;;36.55;;
43700;SDS011;58809;47.984;7.964;2022-12-16T15:02:26;61.22;;;34.55;;
43700;SDS011;58809;47.984;7.964;2022-12-16T15:05:50;56.67;;;34.38;;
43700;SDS011;58809;47.984;7.964;2022-12-16T15:09:23;55.28;;;33.00;;
43700;SDS011;58809;47.984;7.964;2022-12-16T15:12:46;53.75;;;33.80;;
43700;SDS011;58809;47.984;7.964;2022-12-16T15:16:13;55.80;;;33.58;;
43700;SDS011;58809;47.984;7.964;2022-12-16T15:19:41;56.05;;;33.78;;
43700;SDS011;58809;47.984;7.964;2022-12-16T15:23:10;49.97;;;31.65;;
43700;SDS011;58809;47.984;7.964;2022-12-16T15:26:39;55.35;;;32.42;;
43700;SDS011;58809;47.984;7.964;2022-12-16T15:29:59;52.50;;;33.13;;
43700;SDS011;58809;47.984;7.964;2022-12-16T15:33:21;50.90;;;33.13;;
43700;SDS011;58809;47.984;7.964;2022-12-16T15:36:59;47.28;;;31.08;;
43700;SDS011;58809;47.984;7.964;2022-12-16T15:40:32;53.70;;;31.77;;
43700;SDS011;58809;47.984;7.964;2022-12-16T15:44:00;53.70;;;33.72;;
43700;SDS011;58809;47.984;7.964;2022-12-16T15:47:23;51.08;;;33.88;;
43700;SDS011;58809;47.984;7.964;2022-12-16T15:50:52;52.92;;;33.55;;
43700;SDS011;58809;47.984;7.964;2022-12-16T15:54:17;54.38;;;33.08;;
43700;SDS011;58809;47.984;7.964;2022-12-16T15:57:55;49.53;;;31.83;;
43700;SDS011;58809;47.984;7.964;2022-12-16T16:01:16;50.50;;;31.88;;
43700;SDS011;58809;47.984;7.964;2022-12-16T16:04:43;45.95;;;27.42;;
43700;SDS011;58809;47.984;7.964;2022-12-16T16:08:03;43.83;;;28.80;;
43700;SDS011;58809;47.984;7.964;2022-12-16T16:11:24;46.10;;;30.30;;
43700;SDS011;58809;47.984;7.964;2022-12-16T16:14:44;47.47;;;29.17;;
43700;SDS011;58809;47.984;7.964;2022-12-16T16:18:04;46.80;;;30.20;;
43700;SDS011;58809;47.984;7.964;2022-12-16T16:21:24;46.50;;;29.70;;
43700;SDS011;58809;47.984;7.964;2022-12-16T16:24:45;49.67;;;30.08;;
43700;SDS011;58809;47.984;7.964;2022-12-16T16:28:06;50.05;;;30.50;;
43700;SDS011;58809;47.984;7.964;2022-12-16T16:31:27;43.63;;;29.13;;
43700;SDS011;58809;47.984;7.964;2022-12-16T16:34:47;43.47;;;27.35;;
43700;SDS011;58809;47.984;7.964;2022-12-16T16:38:09;45.40;;;29.75;;
43700;SDS011;58809;47.984;7.964;2022-12-16T16:41:30;44.58;;;27.65;;
43700;SDS011;58809;47.984;7.964;2022-12-16T16:44:50;43.67;;;28.63;;
43700;SDS011;58809;47.984;7.964;2022-12-16T16:48:12;45.10;;;29.35;;
43700;SDS011;58809;47.984;7.964;2022-12-16T16:51:34;46.20;;;28.55;;
43700;SDS011;58809;47.984;7.964;2022-12-16T16:54:54;46.58;;;28.85;;
43700;SDS011;58809;47.984;7.964;2022-12-16T16:58:26;47.85;;;29.17;;
43700;SDS011;58809;47.984;7.964;2022-12-16T17:05:10;47.67;;;27.52;;
43700;SDS011;58809;47.984;7.964;2022-12-16T17:08:30;48.00;;;28.02;;
43700;SDS011;58809;47.984;7.964;2022-12-16T17:11:50;51.88;;;29.25;;
43700;SDS011;58809;47.984;7.964;2022-12-16T17:18:36;41.60;;;26.52;;
43700;SDS011;58809;47.984;7.964;2022-12-16T17:21:56;44.65;;;28.33;;
43700;SDS011;58809;47.984;7.964;2022-12-16T17:25:16;42.83;;;27.83;;
43700;SDS011;58809;47.984;7.964;2022-12-16T17:28:36;46.00;;;27.95;;
43700;SDS011;58809;47.984;7.964;2022-12-16T17:31:56;41.53;;;26.27;;
43700;SDS011;58809;47.984;7.964;2022-12-16T17:35:16;48.33;;;28.40;;
43700;SDS011;58809;47.984;7.964;2022-12-16T17:38:37;38.03;;;26.50;;
43700;SDS011;58809;47.984;7.964;2022-12-16T17:41:59;41.63;;;26.77;;
43700;SDS011;58809;47.984;7.964;2022-12-16T17:45:19;46.38;;;29.00;;
43700;SDS011;58809;47.984;7.964;2022-12-16T17:48:39;44.10;;;27.08;;
43700;SDS011;58809;47.984;7.964;2022-12-16T17:52:16;47.13;;;29.02;;
43700;SDS011;58809;47.984;7.964;2022-12-16T17:55:36;47.25;;;27.13;;
43700;SDS011;58809;47.984;7.964;2022-12-16T17:58:57;46.90;;;30.10;;
43700;SDS011;58809;47.984;7.964;2022-12-16T18:02:17;49.10;;;29.75;;
43700;SDS011;58809;47.984;7.964;2022-12-16T18:05:37;44.28;;;29.13;;
43700;SDS011;58809;47.984;7.964;2022-12-16T18:08:58;44.42;;;28.17;;
43700;SDS011;58809;47.984;7.964;2022-12-16T18:12:18;48.90;;;31.40;;
43700;SDS011;58809;47.984;7.964;2022-12-16T18:15:39;44.40;;;28.70;;
43700;SDS011;58809;47.984;7.964;2022-12-16T18:18:59;46.85;;;27.92;;
43700;SDS011;58809;47.984;7.964;2022-12-16T18:22:20;43.50;;;28.25;;
43700;SDS011;58809;47.984;7.964;2022-12-16T18:25:40;44.22;;;28.60;;
43700;SDS011;58809;47.984;7.964;2022-12-16T18:29:00;49.80;;;31.00;;
43700;SDS011;58809;47.984;7.964;2022-12-16T18:32:20;56.53;;;34.40;;
43700;SDS011;58809;47.984;7.964;2022-12-16T18:35:40;54.30;;;33.30;;
43700;SDS011;58809;47.984;7.964;2022-12-16T18:39:01;96.85;;;54.13;;
43700;SDS011;58809;47.984;7.964;2022-12-16T18:42:21;92.55;;;51.83;;
43700;SDS011;58809;47.984;7.964;2022-12-16T18:45:49;55.33;;;36.22;;
43700;SDS011;58809;47.984;7.964;2022-12-16T18:49:11;59.45;;;38.15;;
43700;SDS011;58809;47.984;7.964;2022-12-16T18:52:31;67.07;;;44.33;;
43700;SDS011;58809;47.984;7.964;2022-12-16T18:56:00;81.53;;;51.58;;
43700;SDS011;58809;47.984;7.964;2022-12-16T18:59:22;55.20;;;37.00;;
43700;SDS011;58809;47.984;7.964;2022-12-16T19:02:42;62.90;;;38.88;;
43700;SDS011;58809;47.984;7.964;2022-12-16T19:06:02;63.03;;;39.22;;
43700;SDS011;58809;47.984;7.964;2022-12-16T19:09:22;50.80;;;31.33;;
43700;SDS011;58809;47.984;7.964;2022-12-16T19:12:43;49.05;;;28.98;;
43700;SDS011;58809;47.984;7.964;2022-12-16T19:16:03;48.53;;;28.67;;
43700;SDS011;58809;47.984;7.964;2022-12-16T19:19:23;59.42;;;35.92;;
43700;SDS011;58809;47.984;7.964;2022-12-16T19:22:43;58.42;;;34.22;;
43700;SDS011;58809;47.984;7.964;2022-12-16T19:26:03;54.53;;;32.13;;
43700;SDS011;58809;47.984;7.964;2022-12-16T19:29:24;52.53;;;30.63;;
43700;SDS011;58809;47.984;7.964;2022-12-16T19:32:46;49.55;;;31.30;;
43700;SDS011;58809;47.984;7.964;2022-12-16T19:36:07;63.47;;;39.83;;
43700;SDS011;58809;47.984;7.964;2022-12-16T19:39:27;65.13;;;39.08;;
43700;SDS011;58809;47.984;7.964;2022-12-16T19:42:47;51.72;;;31.23;;
43700;SDS011;58809;47.984;7.964;2022-12-16T19:46:21;54.35;;;32.20;;
43700;SDS011;58809;47.984;7.964;2022-12-16T19:49:42;48.90;;;28.38;;
43700;SDS011;58809;47.984;7.964;2022-12-16T19:53:06;46.67;;;27.43;;
43700;SDS011;58809;47.984;7.964;2022-12-16T19:56:26;48.42;;;28.33;;
43700;SDS011;58809;47.984;7.964;2022-12-16T19:59:46;56.95;;;32.60;;
43700;SDS011;58809;47.984;7.964;2022-12-16T20:03:14;73.00;;;39.70;;
43700;SDS011;58809;47.984;7.964;2022-12-16T20:06:36;47.50;;;28.77;;
43700;SDS011;58809;47.984;7.964;2022-12-16T20:09:57;56.72;;;29.80;;
43700;SDS011;58809;47.984;7.964;2022-12-16T20:13:17;45.90;;;27.02;;
43700;SDS011;58809;47.984;7.964;2022-12-16T20:16:37;42.88;;;25.90;;
43700;SDS011;58809;47.984;7.964;2022-12-16T20:19:58;40.30;;;24.33;;
43700;SDS011;58809;47.984;7.964;2022-12-16T20:23:18;42.13;;;25.60;;
43700;SDS011;58809;47.984;7.964;2022-12-16T20:26:38;44.00;;;25.42;;
43700;SDS011;58809;47.984;7.964;2022-12-16T20:29:59;48.97;;;27.23;;
43700;SDS011;58809;47.984;7.964;2022-12-16T20:33:19;42.30;;;25.95;;
43700;SDS011;58809;47.984;7.964;2022-12-16T20:36:39;44.20;;;24.73;;
43700;SDS011;58809;47.984;7.964;2022-12-16T20:40:00;39.90;;;26.55;;
43700;SDS011;58809;47.984;7.964;2022-12-16T20:43:20;44.20;;;27.33;;
43700;SDS011;58809;47.984;7.964;2022-12-16T20:46:41;39.17;;;25.73;;
43700;SDS011;58809;47.984;7.964;2022-12-16T20:50:01;42.50;;;25.05;;
43700;SDS011;58809;47.984;7.964;2022-12-16T20:53:22;39.88;;;23.15;;
43700;SDS011;58809;47.984;7.964;2022-12-16T20:56:43;40.05;;;23.25;;
43700;SDS011;58809;47.984;7.964;2022-12-16T21:00:08;38.70;;;24.05;;
43700;SDS011;58809;47.984;7.964;2022-12-16T21:03:29;34.63;;;21.35;;
43700;SDS011;58809;47.984;7.964;2022-12-16T21:06:49;42.45;;;24.98;;
43700;SDS011;58809;47.984;7.964;2022-12-16T21:10:09;39.45;;;23.05;;
43700;SDS011;58809;47.984;7.964;2022-12-16T21:13:30;37.95;;;23.55;;
43700;SDS011;58809;47.984;7.964;2022-12-16T21:16:50;37.33;;;21.85;;
43700;SDS011;58809;47.984;7.964;2022-12-16T21:20:11;37.10;;;20.80;;